sensor_id;sensor_type;location;lat;lon;timestamp;pressure;altitude;pressure_sealevel;temperature;humidity
68889;BME280;55930;47.412;8.790;2022-07-09T00:00:42;95676.81;;;13.53;74.80
68889;BME280;55930;47.412;8.790;2022-07-09T00:03:10;95672.84;;;13.49;75.52
68889;BME280;55930;47.412;8.790;2022-07-09T00:05:35;95665.63;;;13.40;75.76
68889;BME280;55930;47.412;8.790;2022-07-09T00:08:01;95666.19;;;13.44;75.96
68889;BME280;55930;47.412;8.790;2022-07-09T00:10:26;95673.00;;;13.45;75.93
68889;BME280;55930;47.412;8.790;2022-07-09T00:12:52;95677.28;;;13.52;74.93
68889;BME280;55930;47.412;8.790;2022-07-09T00:15:19;95677.56;;;13.54;74.58
68889;BME280;55930;47.412;8.790;2022-07-09T00:17:45;95671.94;;;13.52;74.56
68889;BME280;55930;47.412;8.790;2022-07-09T00:20:11;95668.13;;;13.44;75.04
68889;BME280;55930;47.412;8.790;2022-07-09T00:22:36;95665.00;;;13.45;75.49
68889;BME280;55930;47.412;8.790;2022-07-09T00:25:02;95668.44;;;13.36;75.62
68889;BME280;55930;47.412;8.790;2022-07-09T00:27:27;95666.41;;;13.22;76.21
68889;BME280;55930;47.412;8.790;2022-07-09T00:29:53;95661.41;;;13.15;76.65
68889;BME280;55930;47.412;8.790;2022-07-09T00:32:18;95660.59;;;13.33;75.70
68889;BME280;55930;47.412;8.790;2022-07-09T00:34:44;95656.78;;;13.25;76.42
68889;BME280;55930;47.412;8.790;2022-07-09T00:37:12;95657.34;;;13.29;75.55
68889;BME280;55930;47.412;8.790;2022-07-09T00:39:40;95653.66;;;13.26;75.80
68889;BME280;55930;47.412;8.790;2022-07-09T00:42:07;95651.31;;;13.19;75.50
68889;BME280;55930;47.412;8.790;2022-07-09T00:44:36;95655.63;;;13.17;75.58
68889;BME280;55930;47.412;8.790;2022-07-09T00:47:06;95653.66;;;13.17;75.97
68889;BME280;55930;47.412;8.790;2022-07-09T00:49:35;95653.69;;;13.08;76.41
68889;BME280;55930;47.412;8.790;2022-07-09T00:52:02;95649.38;;;13.11;76.42
68889;BME280;55930;47.412;8.790;2022-07-09T00:54:29;95645.69;;;13.17;76.39
68889;BME280;55930;47.412;8.790;2022-07-09T00:56:57;95652.53;;;13.00;77.55
68889;BME280;55930;47.412;8.790;2022-07-09T00:59:23;95646.28;;;13.03;77.45
68889;BME280;55930;47.412;8.790;2022-07-09T01:01:50;95644.22;;;12.98;77.23
68889;BME280;55930;47.412;8.790;2022-07-09T01:04:16;95640.81;;;12.97;77.88
68889;BME280;55930;47.412;8.790;2022-07-09T01:06:41;95645.56;;;12.93;77.88
68889;BME280;55930;47.412;8.790;2022-07-09T01:09:07;95639.22;;;12.91;78.03
68889;BME280;55930;47.412;8.790;2022-07-09T01:11:33;95637.44;;;12.79;78.49
68889;BME280;55930;47.412;8.790;2022-07-09T01:13:59;95636.56;;;12.82;78.51
68889;BME280;55930;47.412;8.790;2022-07-09T01:16:32;95640.41;;;12.81;78.65
68889;BME280;55930;47.412;8.790;2022-07-09T01:18:58;95633.72;;;12.85;77.55
68889;BME280;55930;47.412;8.790;2022-07-09T01:21:23;95627.97;;;12.87;78.20
68889;BME280;55930;47.412;8.790;2022-07-09T01:23:49;95627.09;;;12.90;77.66
68889;BME280;55930;47.412;8.790;2022-07-09T01:26:14;95625.19;;;12.72;78.20
68889;BME280;55930;47.412;8.790;2022-07-09T01:28:40;95619.97;;;12.78;78.47
68889;BME280;55930;47.412;8.790;2022-07-09T01:31:05;95619.13;;;12.72;78.70
68889;BME280;55930;47.412;8.790;2022-07-09T01:33:31;95617.63;;;12.71;79.19
68889;BME280;55930;47.412;8.790;2022-07-09T01:36:00;95614.97;;;12.61;79.49
68889;BME280;55930;47.412;8.790;2022-07-09T01:38:25;95605.81;;;12.62;79.01
68889;BME280;55930;47.412;8.790;2022-07-09T01:40:51;95609.38;;;12.59;78.96
68889;BME280;55930;47.412;8.790;2022-07-09T01:43:19;95611.28;;;12.68;78.36
68889;BME280;55930;47.412;8.790;2022-07-09T01:45:44;95609.50;;;12.74;78.06
68889;BME280;55930;47.412;8.790;2022-07-09T01:48:12;95606.81;;;12.92;77.42
68889;BME280;55930;47.412;8.790;2022-07-09T01:50:38;95604.16;;;12.83;78.44
68889;BME280;55930;47.412;8.790;2022-07-09T01:53:03;95599.28;;;12.73;78.31
68889;BME280;55930;47.412;8.790;2022-07-09T01:55:29;95598.72;;;12.69;79.11
68889;BME280;55930;47.412;8.790;2022-07-09T01:57:55;95605.97;;;12.59;78.94
68889;BME280;55930;47.412;8.790;2022-07-09T02:00:20;95596.66;;;12.54;79.66
68889;BME280;55930;47.412;8.790;2022-07-09T02:02:45;95595.16;;;12.53;78.95
68889;BME280;55930;47.412;8.790;2022-07-09T02:05:12;95597.69;;;12.57;78.23
68889;BME280;55930;47.412;8.790;2022-07-09T02:07:38;95593.84;;;12.49;79.14
68889;BME280;55930;47.412;8.790;2022-07-09T02:10:03;95596.22;;;12.47;79.52
68889;BME280;55930;47.412;8.790;2022-07-09T02:12:29;95597.25;;;12.49;78.86
68889;BME280;55930;47.412;8.790;2022-07-09T02:14:55;95598.44;;;12.57;78.89
68889;BME280;55930;47.412;8.790;2022-07-09T02:17:20;95593.13;;;12.39;79.10
68889;BME280;55930;47.412;8.790;2022-07-09T02:19:46;95595.19;;;12.44;79.11
68889;BME280;55930;47.412;8.790;2022-07-09T02:22:13;95589.56;;;12.33;79.02
68889;BME280;55930;47.412;8.790;2022-07-09T02:24:39;95585.00;;;12.34;78.98
68889;BME280;55930;47.412;8.790;2022-07-09T02:27:05;95581.91;;;12.35;78.97
68889;BME280;55930;47.412;8.790;2022-07-09T02:29:33;95579.38;;;12.22;80.80
68889;BME280;55930;47.412;8.790;2022-07-09T02:32:01;95573.03;;;12.20;81.29
68889;BME280;55930;47.412;8.790;2022-07-09T02:34:27;95577.72;;;11.98;82.56
68889;BME280;55930;47.412;8.790;2022-07-09T02:36:52;95576.84;;;12.01;82.57
68889;BME280;55930;47.412;8.790;2022-07-09T02:39:17;95575.69;;;12.11;81.41
68889;BME280;55930;47.412;8.790;2022-07-09T02:41:45;95580.72;;;12.18;81.44
68889;BME280;55930;47.412;8.790;2022-07-09T02:44:10;95574.34;;;12.34;80.66
68889;BME280;55930;47.412;8.790;2022-07-09T02:46:36;95571.53;;;12.10;81.54
68889;BME280;55930;47.412;8.790;2022-07-09T02:49:01;95576.84;;;12.01;82.28
68889;BME280;55930;47.412;8.790;2022-07-09T02:51:27;95584.53;;;12.08;82.57
68889;BME280;55930;47.412;8.790;2022-07-09T02:53:53;95575.66;;;11.93;82.75
68889;BME280;55930;47.412;8.790;2022-07-09T02:56:21;95573.59;;;11.78;83.76
68889;BME280;55930;47.412;8.790;2022-07-09T02:58:46;95581.50;;;11.69;82.99
68889;BME280;55930;47.412;8.790;2022-07-09T03:01:11;95580.44;;;11.48;83.35
68889;BME280;55930;47.412;8.790;2022-07-09T03:03:37;95584.66;;;11.77;82.04
68889;BME280;55930;47.412;8.790;2022-07-09T03:06:05;95578.69;;;11.55;82.99
68889;BME280;55930;47.412;8.790;2022-07-09T03:08:33;95581.78;;;11.62;82.90
68889;BME280;55930;47.412;8.790;2022-07-09T03:10:58;95579.13;;;11.13;84.57
68889;BME280;55930;47.412;8.790;2022-07-09T03:13:24;95575.13;;;11.18;85.05
68889;BME280;55930;47.412;8.790;2022-07-09T03:15:49;95581.66;;;11.17;85.62
68889;BME280;55930;47.412;8.790;2022-07-09T03:18:15;95580.44;;;11.18;85.10
68889;BME280;55930;47.412;8.790;2022-07-09T03:20:40;95590.25;;;11.30;84.70
68889;BME280;55930;47.412;8.790;2022-07-09T03:23:05;95582.56;;;11.23;84.87
68889;BME280;55930;47.412;8.790;2022-07-09T03:25:31;95581.94;;;11.19;84.86
68889;BME280;55930;47.412;8.790;2022-07-09T03:27:57;95586.72;;;11.02;86.49
68889;BME280;55930;47.412;8.790;2022-07-09T03:30:23;95590.53;;;10.92;86.71
68889;BME280;55930;47.412;8.790;2022-07-09T03:32:49;95587.69;;;10.86;87.35
68889;BME280;55930;47.412;8.790;2022-07-09T03:35:17;95588.03;;;10.97;86.71
68889;BME280;55930;47.412;8.790;2022-07-09T03:37:43;95576.03;;;11.15;86.43
68889;BME280;55930;47.412;8.790;2022-07-09T03:40:09;95579.31;;;11.28;85.63
68889;BME280;55930;47.412;8.790;2022-07-09T03:42:36;95581.53;;;11.29;85.84
68889;BME280;55930;47.412;8.790;2022-07-09T03:45:02;95581.84;;;11.31;86.55
68889;BME280;55930;47.412;8.790;2022-07-09T03:47:27;95587.16;;;11.31;86.93
68889;BME280;55930;47.412;8.790;2022-07-09T03:49:53;95580.34;;;11.21;87.87
68889;BME280;55930;47.412;8.790;2022-07-09T03:52:18;95580.06;;;11.28;87.16
68889;BME280;55930;47.412;8.790;2022-07-09T03:54:44;95582.91;;;11.43;86.45
68889;BME280;55930;47.412;8.790;2022-07-09T03:57:09;95588.06;;;11.37;85.83
68889;BME280;55930;47.412;8.790;2022-07-09T03:59:35;95583.63;;;11.34;86.92
68889;BME280;55930;47.412;8.790;2022-07-09T04:02:04;95585.41;;;11.37;87.67
68889;BME280;55930;47.412;8.790;2022-07-09T04:04:30;95580.84;;;11.38;87.19
68889;BME280;55930;47.412;8.790;2022-07-09T04:06:56;95582.31;;;11.39;86.25
68889;BME280;55930;47.412;8.790;2022-07-09T04:09:23;95587.72;;;11.17;86.88
68889;BME280;55930;47.412;8.790;2022-07-09T04:11:49;95586.53;;;11.27;86.74
68889;BME280;55930;47.412;8.790;2022-07-09T04:14:14;95587.59;;;11.30;86.50
68889;BME280;55930;47.412;8.790;2022-07-09T04:16:40;95588.06;;;11.37;86.55
68889;BME280;55930;47.412;8.790;2022-07-09T04:19:06;95586.88;;;11.38;86.66
68889;BME280;55930;47.412;8.790;2022-07-09T04:21:32;95587.47;;;11.42;87.35
68889;BME280;55930;47.412;8.790;2022-07-09T04:23:57;95591.25;;;11.63;86.27
68889;BME280;55930;47.412;8.790;2022-07-09T04:26:23;95597.88;;;11.59;86.75
68889;BME280;55930;47.412;8.790;2022-07-09T04:28:51;95597.03;;;11.71;86.63
68889;BME280;55930;47.412;8.790;2022-07-09T04:31:16;95596.47;;;11.76;86.60
68889;BME280;55930;47.412;8.790;2022-07-09T04:33:44;95600.94;;;11.88;85.22
68889;BME280;55930;47.412;8.790;2022-07-09T04:36:10;95598.41;;;11.84;85.55
68889;BME280;55930;47.412;8.790;2022-07-09T04:38:35;95591.03;;;11.88;85.67
68889;BME280;55930;47.412;8.790;2022-07-09T04:41:01;95591.78;;;12.07;85.32
68889;BME280;55930;47.412;8.790;2022-07-09T04:43:26;95592.22;;;12.24;84.82
68889;BME280;55930;47.412;8.790;2022-07-09T04:45:52;95597.25;;;12.31;84.21
68889;BME280;55930;47.412;8.790;2022-07-09T04:48:17;95598.28;;;12.34;83.09
68889;BME280;55930;47.412;8.790;2022-07-09T04:50:43;95595.34;;;12.50;83.04
68889;BME280;55930;47.412;8.790;2022-07-09T04:53:08;95590.88;;;12.56;82.81
68889;BME280;55930;47.412;8.790;2022-07-09T04:55:34;95592.53;;;12.44;82.96
68889;BME280;55930;47.412;8.790;2022-07-09T04:58:01;95595.47;;;12.55;83.12
68889;BME280;55930;47.412;8.790;2022-07-09T05:00:27;95588.78;;;12.78;81.88
68889;BME280;55930;47.412;8.790;2022-07-09T05:02:55;95592.19;;;12.70;82.49
68889;BME280;55930;47.412;8.790;2022-07-09T05:05:20;95588.94;;;12.84;82.39
68889;BME280;55930;47.412;8.790;2022-07-09T05:07:51;95595.63;;;12.61;82.66
68889;BME280;55930;47.412;8.790;2022-07-09T05:10:19;95595.31;;;12.59;82.87
68889;BME280;55930;47.412;8.790;2022-07-09T05:12:45;95599.59;;;12.65;82.46
68889;BME280;55930;47.412;8.790;2022-07-09T05:15:13;95595.75;;;12.67;82.86
68889;BME280;55930;47.412;8.790;2022-07-09T05:17:41;95599.25;;;13.00;81.82
68889;BME280;55930;47.412;8.790;2022-07-09T05:20:08;95594.81;;;12.97;81.65
68889;BME280;55930;47.412;8.790;2022-07-09T05:22:36;95600.25;;;13.12;81.56
68889;BME280;55930;47.412;8.790;2022-07-09T05:25:05;95602.69;;;13.33;81.54
68889;BME280;55930;47.412;8.790;2022-07-09T05:27:31;95607.84;;;13.46;80.82
68889;BME280;55930;47.412;8.790;2022-07-09T05:29:59;95606.69;;;13.71;80.09
68889;BME280;55930;47.412;8.790;2022-07-09T05:32:24;95610.56;;;13.94;80.28
68889;BME280;55930;47.412;8.790;2022-07-09T05:34:49;95601.56;;;14.06;79.36
68889;BME280;55930;47.412;8.790;2022-07-09T05:37:15;95610.72;;;14.14;79.43
68889;BME280;55930;47.412;8.790;2022-07-09T05:39:40;95612.06;;;14.33;78.99
68889;BME280;55930;47.412;8.790;2022-07-09T05:42:09;95605.06;;;14.60;78.83
68889;BME280;55930;47.412;8.790;2022-07-09T05:44:37;95611.97;;;14.66;77.75
68889;BME280;55930;47.412;8.790;2022-07-09T05:47:05;95609.88;;;15.00;76.34
68889;BME280;55930;47.412;8.790;2022-07-09T05:49:31;95607.94;;;15.15;75.22
68889;BME280;55930;47.412;8.790;2022-07-09T05:51:56;95605.50;;;15.31;74.54
68889;BME280;55930;47.412;8.790;2022-07-09T05:54:24;95604.78;;;15.31;74.88
68889;BME280;55930;47.412;8.790;2022-07-09T05:56:50;95607.81;;;15.74;73.00
68889;BME280;55930;47.412;8.790;2022-07-09T05:59:16;95610.00;;;15.55;72.57
68889;BME280;55930;47.412;8.790;2022-07-09T06:01:41;95604.09;;;16.06;71.33
68889;BME280;55930;47.412;8.790;2022-07-09T06:04:08;95603.31;;;16.20;70.52
68889;BME280;55930;47.412;8.790;2022-07-09T06:06:36;95613.91;;;16.55;69.17
68889;BME280;55930;47.412;8.790;2022-07-09T06:09:04;95604.59;;;16.71;66.67
68889;BME280;55930;47.412;8.790;2022-07-09T06:11:29;95611.88;;;16.91;65.50
68889;BME280;55930;47.412;8.790;2022-07-09T06:13:55;95619.63;;;17.14;67.15
68889;BME280;55930;47.412;8.790;2022-07-09T06:16:20;95613.00;;;17.10;64.96
68889;BME280;55930;47.412;8.790;2022-07-09T06:18:48;95621.56;;;17.45;63.74
68889;BME280;55930;47.412;8.790;2022-07-09T06:21:13;95623.25;;;17.43;64.31
68889;BME280;55930;47.412;8.790;2022-07-09T06:23:41;95623.03;;;17.46;63.60
68889;BME280;55930;47.412;8.790;2022-07-09T06:26:08;95624.16;;;17.66;63.11
68889;BME280;55930;47.412;8.790;2022-07-09T06:28:37;95625.03;;;17.88;61.85
68889;BME280;55930;47.412;8.790;2022-07-09T06:31:03;95620.81;;;17.76;60.85
68889;BME280;55930;47.412;8.790;2022-07-09T06:33:28;95628.78;;;18.02;61.83
68889;BME280;55930;47.412;8.790;2022-07-09T06:35:54;95629.13;;;18.26;61.40
68889;BME280;55930;47.412;8.790;2022-07-09T06:38:22;95632.09;;;18.40;61.82
68889;BME280;55930;47.412;8.790;2022-07-09T06:40:47;95628.84;;;18.19;60.76
68889;BME280;55930;47.412;8.790;2022-07-09T06:43:15;95624.88;;;18.57;59.39
68889;BME280;55930;47.412;8.790;2022-07-09T06:45:40;95637.81;;;18.58;61.29
68889;BME280;55930;47.412;8.790;2022-07-09T06:48:06;95630.78;;;18.89;58.75
68889;BME280;55930;47.412;8.790;2022-07-09T06:50:31;95633.47;;;18.89;60.44
68889;BME280;55930;47.412;8.790;2022-07-09T06:52:57;95637.41;;;19.16;59.90
68889;BME280;55930;47.412;8.790;2022-07-09T06:55:22;95632.06;;;19.49;58.70
68889;BME280;55930;47.412;8.790;2022-07-09T06:57:48;95632.31;;;19.45;57.84
68889;BME280;55930;47.412;8.790;2022-07-09T07:00:15;95633.06;;;19.52;57.75
68889;BME280;55930;47.412;8.790;2022-07-09T07:02:43;95625.66;;;19.85;57.55
68889;BME280;55930;47.412;8.790;2022-07-09T07:05:08;95634.44;;;19.97;57.78
68889;BME280;55930;47.412;8.790;2022-07-09T07:07:34;95626.91;;;19.79;56.96
68889;BME280;55930;47.412;8.790;2022-07-09T07:09:59;95624.19;;;19.73;56.89
68889;BME280;55930;47.412;8.790;2022-07-09T07:12:24;95631.59;;;20.47;56.00
68889;BME280;55930;47.412;8.790;2022-07-09T07:14:52;95627.03;;;20.14;55.92
68889;BME280;55930;47.412;8.790;2022-07-09T07:17:18;95628.44;;;20.32;55.31
68889;BME280;55930;47.412;8.790;2022-07-09T07:19:43;95623.75;;;20.49;55.52
68889;BME280;55930;47.412;8.790;2022-07-09T07:22:09;95621.47;;;20.65;55.18
68889;BME280;55930;47.412;8.790;2022-07-09T07:24:34;95619.81;;;20.91;50.24
68889;BME280;55930;47.412;8.790;2022-07-09T07:27:00;95617.47;;;20.77;50.91
68889;BME280;55930;47.412;8.790;2022-07-09T07:29:25;95614.28;;;21.14;51.25
68889;BME280;55930;47.412;8.790;2022-07-09T07:31:51;95618.94;;;21.19;51.82
68889;BME280;55930;47.412;8.790;2022-07-09T07:34:17;95622.44;;;21.68;50.99
68889;BME280;55930;47.412;8.790;2022-07-09T07:36:44;95618.22;;;21.72;47.72
68889;BME280;55930;47.412;8.790;2022-07-09T07:39:10;95610.50;;;21.82;49.95
68889;BME280;55930;47.412;8.790;2022-07-09T07:41:39;95611.72;;;22.30;47.23
68889;BME280;55930;47.412;8.790;2022-07-09T07:44:05;95615.88;;;22.12;48.32
68889;BME280;55930;47.412;8.790;2022-07-09T07:46:30;95615.19;;;22.68;49.26
68889;BME280;55930;47.412;8.790;2022-07-09T07:48:56;95603.69;;;22.43;47.61
68889;BME280;55930;47.412;8.790;2022-07-09T07:51:21;95605.59;;;22.29;47.65
68889;BME280;55930;47.412;8.790;2022-07-09T07:53:46;95599.72;;;22.06;47.04
68889;BME280;55930;47.412;8.790;2022-07-09T07:56:12;95600.13;;;22.53;47.42
68889;BME280;55930;47.412;8.790;2022-07-09T07:58:37;95605.69;;;22.61;47.14
68889;BME280;55930;47.412;8.790;2022-07-09T08:01:05;95604.94;;;22.23;46.29
68889;BME280;55930;47.412;8.790;2022-07-09T08:03:35;95591.88;;;22.46;46.00
68889;BME280;55930;47.412;8.790;2022-07-09T08:06:01;95595.91;;;22.77;44.82
68889;BME280;55930;47.412;8.790;2022-07-09T08:08:29;95600.28;;;23.44;44.83
68889;BME280;55930;47.412;8.790;2022-07-09T08:10:54;95602.03;;;23.73;42.74
68889;BME280;55930;47.412;8.790;2022-07-09T08:13:20;95604.94;;;23.30;43.23
68889;BME280;55930;47.412;8.790;2022-07-09T08:15:45;95599.94;;;23.34;44.43
68889;BME280;55930;47.412;8.790;2022-07-09T08:18:11;95589.66;;;23.46;42.98
68889;BME280;55930;47.412;8.790;2022-07-09T08:20:40;95595.09;;;23.46;43.24
68889;BME280;55930;47.412;8.790;2022-07-09T08:23:06;95592.41;;;23.59;41.87
68889;BME280;55930;47.412;8.790;2022-07-09T08:25:32;95584.41;;;24.32;39.99
68889;BME280;55930;47.412;8.790;2022-07-09T08:28:00;95582.75;;;23.77;43.43
68889;BME280;55930;47.412;8.790;2022-07-09T08:30:26;95587.81;;;24.20;40.86
68889;BME280;55930;47.412;8.790;2022-07-09T08:32:54;95581.06;;;24.00;41.00
68889;BME280;55930;47.412;8.790;2022-07-09T08:35:19;95583.56;;;24.71;40.19
68889;BME280;55930;47.412;8.790;2022-07-09T08:37:47;95577.88;;;25.16;39.24
68889;BME280;55930;47.412;8.790;2022-07-09T08:40:12;95580.22;;;24.78;38.71
68889;BME280;55930;47.412;8.790;2022-07-09T08:42:38;95574.34;;;24.74;40.02
68889;BME280;55930;47.412;8.790;2022-07-09T08:45:07;95581.59;;;25.55;39.31
68889;BME280;55930;47.412;8.790;2022-07-09T08:47:37;95575.19;;;25.66;41.58
68889;BME280;55930;47.412;8.790;2022-07-09T08:50:03;95576.16;;;25.06;36.74
68889;BME280;55930;47.412;8.790;2022-07-09T08:52:32;95568.72;;;25.06;38.24
68889;BME280;55930;47.412;8.790;2022-07-09T08:54:59;95573.38;;;24.85;38.69
68889;BME280;55930;47.412;8.790;2022-07-09T08:57:24;95571.63;;;25.78;39.39
68889;BME280;55930;47.412;8.790;2022-07-09T08:59:50;95565.28;;;26.48;34.84
68889;BME280;55930;47.412;8.790;2022-07-09T09:02:15;95572.72;;;27.29;33.89
68889;BME280;55930;47.412;8.790;2022-07-09T09:04:47;95578.34;;;27.16;33.56
68889;BME280;55930;47.412;8.790;2022-07-09T09:07:17;95575.78;;;27.40;34.11
68889;BME280;55930;47.412;8.790;2022-07-09T09:09:44;95571.72;;;28.17;31.36
68889;BME280;55930;47.412;8.790;2022-07-09T09:12:11;95568.50;;;27.89;30.93
68889;BME280;55930;47.412;8.790;2022-07-09T09:14:37;95566.63;;;26.70;33.20
68889;BME280;55930;47.412;8.790;2022-07-09T09:17:09;95570.06;;;28.14;30.69
68889;BME280;55930;47.412;8.790;2022-07-09T09:19:38;95567.41;;;28.47;33.19
68889;BME280;55930;47.412;8.790;2022-07-09T09:22:04;95570.81;;;29.20;31.88
68889;BME280;55930;47.412;8.790;2022-07-09T09:24:29;95564.13;;;29.80;32.52
68889;BME280;55930;47.412;8.790;2022-07-09T09:26:58;95563.91;;;29.19;30.46
68889;BME280;55930;47.412;8.790;2022-07-09T09:29:25;95562.78;;;30.23;27.48
68889;BME280;55930;47.412;8.790;2022-07-09T09:31:54;95565.72;;;29.66;29.86
68889;BME280;55930;47.412;8.790;2022-07-09T09:34:20;95567.25;;;29.10;31.29
68889;BME280;55930;47.412;8.790;2022-07-09T09:36:50;95564.78;;;29.46;29.81
68889;BME280;55930;47.412;8.790;2022-07-09T09:41:48;95560.41;;;29.85;28.41
68889;BME280;55930;47.412;8.790;2022-07-09T09:44:16;95556.94;;;30.54;31.52
68889;BME280;55930;47.412;8.790;2022-07-09T09:46:43;95555.63;;;30.81;30.34
68889;BME280;55930;47.412;8.790;2022-07-09T09:49:12;95550.38;;;30.49;28.77
68889;BME280;55930;47.412;8.790;2022-07-09T09:54:14;95563.47;;;29.72;31.30
68889;BME280;55930;47.412;8.790;2022-07-09T09:56:41;95549.88;;;29.64;31.69
68889;BME280;55930;47.412;8.790;2022-07-09T09:59:06;95547.75;;;28.48;30.84
68889;BME280;55930;47.412;8.790;2022-07-09T10:01:32;95546.78;;;29.43;29.64
68889;BME280;55930;47.412;8.790;2022-07-09T10:03:58;95550.06;;;29.84;29.22
68889;BME280;55930;47.412;8.790;2022-07-09T10:06:25;95543.72;;;30.60;30.89
68889;BME280;55930;47.412;8.790;2022-07-09T10:08:52;95545.94;;;30.10;31.62
68889;BME280;55930;47.412;8.790;2022-07-09T10:11:17;95540.38;;;31.15;28.58
68889;BME280;55930;47.412;8.790;2022-07-09T10:13:55;95539.34;;;30.13;30.24
68889;BME280;55930;47.412;8.790;2022-07-09T10:16:42;95532.88;;;29.24;31.70
68889;BME280;55930;47.412;8.790;2022-07-09T10:19:07;95537.53;;;28.09;32.27
68889;BME280;55930;47.412;8.790;2022-07-09T10:21:38;95539.72;;;28.03;32.54
68889;BME280;55930;47.412;8.790;2022-07-09T10:24:09;95541.47;;;28.63;33.34
68889;BME280;55930;47.412;8.790;2022-07-09T10:26:37;95535.03;;;28.76;38.08
68889;BME280;55930;47.412;8.790;2022-07-09T10:29:26;95537.38;;;27.99;31.61
68889;BME280;55930;47.412;8.790;2022-07-09T10:31:56;95540.47;;;27.88;32.64
68889;BME280;55930;47.412;8.790;2022-07-09T10:37:02;95535.56;;;28.74;32.41
68889;BME280;55930;47.412;8.790;2022-07-09T10:39:28;95530.56;;;27.07;35.27
68889;BME280;55930;47.412;8.790;2022-07-09T10:42:07;95532.19;;;26.95;36.24
68889;BME280;55930;47.412;8.790;2022-07-09T10:44:41;95523.59;;;25.24;35.30
68889;BME280;55930;47.412;8.790;2022-07-09T10:47:12;95521.25;;;26.13;36.50
68889;BME280;55930;47.412;8.790;2022-07-09T10:49:38;95529.56;;;26.08;35.63
68889;BME280;55930;47.412;8.790;2022-07-09T10:52:05;95526.84;;;26.08;36.49
68889;BME280;55930;47.412;8.790;2022-07-09T10:54:30;95524.25;;;25.38;34.96
68889;BME280;55930;47.412;8.790;2022-07-09T10:57:01;95515.28;;;25.22;38.66
68889;BME280;55930;47.412;8.790;2022-07-09T10:59:26;95515.97;;;25.43;35.85
68889;BME280;55930;47.412;8.790;2022-07-09T11:01:52;95511.88;;;25.58;37.66
68889;BME280;55930;47.412;8.790;2022-07-09T11:06:49;95507.22;;;26.45;38.79
68889;BME280;55930;47.412;8.790;2022-07-09T11:09:15;95509.63;;;25.48;35.28
68889;BME280;55930;47.412;8.790;2022-07-09T11:11:42;95505.88;;;25.51;38.00
68889;BME280;55930;47.412;8.790;2022-07-09T11:14:08;95502.81;;;26.27;38.15
68889;BME280;55930;47.412;8.790;2022-07-09T11:16:35;95491.91;;;26.27;36.46
68889;BME280;55930;47.412;8.790;2022-07-09T11:19:12;95496.69;;;25.62;35.22
68889;BME280;55930;47.412;8.790;2022-07-09T11:21:40;95500.91;;;26.65;35.02
68889;BME280;55930;47.412;8.790;2022-07-09T11:24:32;95486.50;;;25.83;34.76
68889;BME280;55930;47.412;8.790;2022-07-09T11:27:05;95485.25;;;25.07;33.76
68889;BME280;55930;47.412;8.790;2022-07-09T11:29:31;95497.47;;;25.70;36.32
68889;BME280;55930;47.412;8.790;2022-07-09T11:31:56;95478.91;;;25.89;39.70
68889;BME280;55930;47.412;8.790;2022-07-09T11:34:22;95488.06;;;26.15;37.34
68889;BME280;55930;47.412;8.790;2022-07-09T11:36:52;95489.13;;;26.12;35.43
68889;BME280;55930;47.412;8.790;2022-07-09T11:39:28;95476.38;;;25.91;32.42
68889;BME280;55930;47.412;8.790;2022-07-09T11:41:57;95468.50;;;25.44;32.89
68889;BME280;55930;47.412;8.790;2022-07-09T11:44:27;95470.38;;;26.37;31.93
68889;BME280;55930;47.412;8.790;2022-07-09T11:47:06;95470.22;;;25.99;34.08
68889;BME280;55930;47.412;8.790;2022-07-09T11:49:41;95461.47;;;25.77;32.89
68889;BME280;55930;47.412;8.790;2022-07-09T11:52:20;95464.59;;;25.97;33.62
68889;BME280;55930;47.412;8.790;2022-07-09T11:55:03;95468.47;;;26.16;34.16
68889;BME280;55930;47.412;8.790;2022-07-09T11:57:31;95461.47;;;25.77;36.52
68889;BME280;55930;47.412;8.790;2022-07-09T11:59:59;95462.84;;;25.71;34.78
68889;BME280;55930;47.412;8.790;2022-07-09T12:04:57;95462.44;;;26.61;36.39
68889;BME280;55930;47.412;8.790;2022-07-09T12:07:23;95460.97;;;25.58;32.58
68889;BME280;55930;47.412;8.790;2022-07-09T12:10:09;95450.28;;;25.96;32.83
68889;BME280;55930;47.412;8.790;2022-07-09T12:12:35;95452.47;;;26.05;32.55
68889;BME280;55930;47.412;8.790;2022-07-09T12:15:05;95459.78;;;26.18;35.42
68889;BME280;55930;47.412;8.790;2022-07-09T12:17:33;95463.28;;;26.26;34.52
68889;BME280;55930;47.412;8.790;2022-07-09T12:19:58;95459.06;;;26.17;33.18
68889;BME280;55930;47.412;8.790;2022-07-09T12:22:25;95453.78;;;26.19;30.80
68889;BME280;55930;47.412;8.790;2022-07-09T12:24:51;95453.00;;;26.62;34.09
68889;BME280;55930;47.412;8.790;2022-07-09T12:27:17;95450.09;;;26.83;31.70
68889;BME280;55930;47.412;8.790;2022-07-09T12:29:43;95450.06;;;26.53;31.31
68889;BME280;55930;47.412;8.790;2022-07-09T12:32:08;95450.53;;;26.21;33.70
68889;BME280;55930;47.412;8.790;2022-07-09T12:34:36;95442.16;;;26.11;33.73
68889;BME280;55930;47.412;8.790;2022-07-09T12:37:02;95444.53;;;26.15;34.69
68889;BME280;55930;47.412;8.790;2022-07-09T12:39:27;95441.84;;;26.22;33.37
68889;BME280;55930;47.412;8.790;2022-07-09T12:41:53;95452.06;;;26.52;31.80
68889;BME280;55930;47.412;8.790;2022-07-09T12:44:19;95448.25;;;26.40;35.45
68889;BME280;55930;47.412;8.790;2022-07-09T12:46:44;95449.72;;;26.56;34.92
68889;BME280;55930;47.412;8.790;2022-07-09T12:49:09;95435.38;;;26.33;30.97
68889;BME280;55930;47.412;8.790;2022-07-09T12:51:37;95443.75;;;26.73;34.77
68889;BME280;55930;47.412;8.790;2022-07-09T12:54:05;95439.84;;;26.23;33.05
68889;BME280;55930;47.412;8.790;2022-07-09T12:56:30;95441.59;;;26.94;33.16
68889;BME280;55930;47.412;8.790;2022-07-09T12:58:56;95444.63;;;26.60;33.10
68889;BME280;55930;47.412;8.790;2022-07-09T13:01:21;95431.72;;;26.31;32.64
68889;BME280;55930;47.412;8.790;2022-07-09T13:03:47;95430.69;;;26.64;32.28
68889;BME280;55930;47.412;8.790;2022-07-09T13:06:12;95426.50;;;25.89;31.49
68889;BME280;55930;47.412;8.790;2022-07-09T13:09:00;95429.75;;;26.69;30.67
68889;BME280;55930;47.412;8.790;2022-07-09T13:11:26;95426.84;;;26.44;29.92